createdAt,value
2018-04-29T00:00:03.929Z,9.12
2018-04-29T00:01:04.503Z,9.17
2018-04-29T00:02:05.058Z,9.14
2018-04-29T00:03:05.614Z,9.15
2018-04-29T00:04:06.149Z,9.11
2018-04-29T00:05:06.690Z,9.08
2018-04-29T00:06:07.235Z,9.15
2018-04-29T00:07:07.782Z,9.08
2018-04-29T00:08:08.330Z,9.11
2018-04-29T00:09:08.866Z,9.08
2018-04-29T00:10:09.413Z,8.96
2018-04-29T00:11:09.964Z,9.01
2018-04-29T00:12:10.504Z,9.06
2018-04-29T00:13:11.048Z,9.04
2018-04-29T00:14:11.595Z,9.00
2018-04-29T00:15:12.135Z,9.00
2018-04-29T00:16:12.684Z,8.92
2018-04-29T00:17:13.228Z,8.88
2018-04-29T00:18:13.766Z,8.85
2018-04-29T00:19:14.308Z,8.78
2018-04-29T00:20:14.850Z,8.76
2018-04-29T00:21:15.395Z,8.81
2018-04-29T00:22:15.942Z,8.82
2018-04-29T00:23:16.478Z,8.84
2018-04-29T00:24:17.020Z,8.82
2018-04-29T00:25:17.561Z,8.81
2018-04-29T00:26:18.112Z,8.77
2018-04-29T00:27:18.654Z,8.85
2018-04-29T00:28:19.198Z,8.81
2018-04-29T00:29:19.739Z,8.76
2018-04-29T00:30:20.283Z,8.70
2018-04-29T00:31:20.825Z,8.60
2018-04-29T00:32:21.371Z,8.60
2018-04-29T00:33:21.913Z,8.67
2018-04-29T00:34:22.457Z,8.68
2018-04-29T00:35:22.995Z,8.73
2018-04-29T00:36:23.537Z,8.67
2018-04-29T00:37:24.082Z,8.70
2018-04-29T00:38:24.628Z,8.66
2018-04-29T00:39:25.173Z,8.70
2018-04-29T00:40:25.711Z,8.66
2018-04-29T00:41:26.256Z,8.64
2018-04-29T00:42:26.810Z,8.68
2018-04-29T00:43:27.341Z,8.64
2018-04-29T00:44:27.889Z,8.67
2018-04-29T00:45:28.438Z,8.56
2018-04-29T00:46:28.982Z,8.50
2018-04-29T00:47:29.525Z,8.50
2018-04-29T00:48:30.067Z,8.52
2018-04-29T00:49:30.607Z,8.56
2018-04-29T00:50:31.153Z,8.56
2018-04-29T00:51:31.694Z,8.60
2018-04-29T00:52:32.236Z,8.55
2018-04-29T00:53:32.781Z,8.46
2018-04-29T00:54:33.320Z,8.43
2018-04-29T00:55:33.859Z,8.43
2018-04-29T00:56:34.403Z,8.43
2018-04-29T00:57:34.942Z,8.45
2018-04-29T00:58:35.485Z,8.43
2018-04-29T00:59:36.030Z,8.35
2018-04-29T01:00:36.571Z,8.41
2018-04-29T01:01:37.114Z,8.23
2018-04-29T01:02:37.659Z,8.28
2018-04-29T01:03:38.206Z,8.31
2018-04-29T01:04:38.750Z,8.25
2018-04-29T01:05:39.297Z,8.30
2018-04-29T01:06:39.841Z,8.28
2018-04-29T01:07:40.386Z,8.28
2018-04-29T01:08:40.932Z,8.35
2018-04-29T01:09:41.476Z,8.23
2018-04-29T01:10:42.020Z,8.27
2018-04-29T01:11:42.566Z,8.27
2018-04-29T01:12:43.114Z,8.19
2018-04-29T01:13:43.657Z,8.20
2018-04-29T01:14:44.206Z,8.19
2018-04-29T01:15:44.750Z,8.20
2018-04-29T01:16:45.290Z,8.20
2018-04-29T01:17:45.834Z,8.19
2018-04-29T01:18:46.374Z,8.09
2018-04-29T01:19:46.917Z,8.12
2018-04-29T01:20:47.463Z,8.09
2018-04-29T01:21:48.010Z,8.06
2018-04-29T01:22:48.558Z,8.20
2018-04-29T01:23:49.095Z,8.15
2018-04-29T01:24:49.634Z,8.06
2018-04-29T01:25:50.180Z,8.07
2018-04-29T01:26:50.726Z,7.97
2018-04-29T01:27:51.265Z,8.06
2018-04-29T01:28:51.808Z,8.02
2018-04-29T01:29:52.352Z,8.04
2018-04-29T01:30:52.896Z,8.07
2018-04-29T01:31:53.442Z,8.02
2018-04-29T01:32:53.983Z,8.13
2018-04-29T01:33:54.527Z,8.12
2018-04-29T01:34:55.070Z,8.07
2018-04-29T01:35:55.619Z,8.09
2018-04-29T01:36:56.187Z,8.06
2018-04-29T01:37:56.697Z,8.06
2018-04-29T01:38:57.235Z,7.98
2018-04-29T01:39:57.781Z,8.10
2018-04-29T01:40:58.327Z,8.13
2018-04-29T01:41:58.870Z,8.19
2018-04-29T01:42:59.417Z,8.16
2018-04-29T01:43:59.961Z,8.13
2018-04-29T01:45:00.506Z,8.15
2018-04-29T01:46:01.055Z,8.16
2018-04-29T01:47:01.596Z,8.09
2018-04-29T01:48:02.134Z,8.09
2018-04-29T01:49:02.674Z,8.06
2018-04-29T01:50:03.219Z,8.17
2018-04-29T01:51:03.762Z,8.09
2018-04-29T01:52:04.313Z,8.16
2018-04-29T01:53:04.852Z,8.12
2018-04-29T01:54:05.395Z,8.13
2018-04-29T01:55:05.942Z,8.10
2018-04-29T01:56:06.481Z,8.04
2018-04-29T01:57:07.025Z,7.94
2018-04-29T01:58:07.569Z,8.09
2018-04-29T01:59:08.111Z,8.06
2018-04-29T02:00:08.657Z,8.01
2018-04-29T02:01:09.201Z,8.02
2018-04-29T02:02:09.746Z,7.97
2018-04-29T02:03:10.290Z,8.04
2018-04-29T02:04:10.837Z,8.01
2018-04-29T02:05:11.377Z,8.04
2018-04-29T02:06:11.920Z,8.04
2018-04-29T02:07:12.459Z,8.06
2018-04-29T02:08:13.003Z,8.09
2018-04-29T02:09:13.544Z,8.07
2018-04-29T02:10:14.084Z,8.10
2018-04-29T02:11:14.623Z,8.04
2018-04-29T02:12:15.170Z,8.06
2018-04-29T02:13:15.712Z,8.13
2018-04-29T02:14:16.259Z,8.07
2018-04-29T02:15:16.805Z,8.04
2018-04-29T02:16:17.354Z,8.10
2018-04-29T02:17:17.891Z,8.15
2018-04-29T02:18:18.430Z,8.12
2018-04-29T02:19:18.972Z,8.06
2018-04-29T02:20:19.513Z,8.07
2018-04-29T02:21:20.055Z,8.01
2018-04-29T02:22:20.594Z,8.02
2018-04-29T02:23:21.143Z,7.99
2018-04-29T02:24:21.684Z,8.01
2018-04-29T02:25:22.228Z,7.91
2018-04-29T02:26:22.766Z,7.94
2018-04-29T02:27:23.310Z,7.98
2018-04-29T02:28:23.856Z,8.07
2018-04-29T02:29:24.400Z,7.97
2018-04-29T02:30:24.943Z,8.02
2018-04-29T02:31:25.508Z,7.89
2018-04-29T02:32:26.025Z,7.95
2018-04-29T02:33:26.564Z,7.91
2018-04-29T02:34:27.116Z,7.95
2018-04-29T02:35:27.661Z,7.95
2018-04-29T02:36:28.202Z,7.83
2018-04-29T02:37:28.749Z,7.88
2018-04-29T02:38:29.295Z,7.81
2018-04-29T02:39:29.842Z,7.86
2018-04-29T02:40:30.385Z,7.72
2018-04-29T02:41:30.929Z,7.74
2018-04-29T02:42:31.469Z,7.63
2018-04-29T02:43:32.012Z,7.63
2018-04-29T02:44:32.555Z,7.70
2018-04-29T02:45:33.106Z,7.73
2018-04-29T02:46:33.646Z,7.69
2018-04-29T02:47:34.193Z,7.66
2018-04-29T02:48:34.727Z,7.63
2018-04-29T02:49:35.275Z,7.55
2018-04-29T02:50:35.817Z,7.70
2018-04-29T02:51:36.357Z,7.66
2018-04-29T02:52:36.904Z,7.63
2018-04-29T02:53:37.451Z,7.63
2018-04-29T02:54:37.992Z,7.63
2018-04-29T02:55:38.537Z,7.60
2018-04-29T02:56:39.078Z,7.55
2018-04-29T02:57:39.618Z,7.55
2018-04-29T02:58:40.160Z,7.53
2018-04-29T02:59:40.704Z,7.53
2018-04-29T03:00:41.251Z,7.46
2018-04-29T03:01:41.795Z,7.40
2018-04-29T03:02:42.337Z,7.55
2018-04-29T03:03:42.883Z,7.53
2018-04-29T03:04:43.473Z,7.50
2018-04-29T03:05:43.967Z,7.45
2018-04-29T03:06:44.515Z,7.45
2018-04-29T03:07:45.056Z,7.37
2018-04-29T03:08:45.598Z,7.43
2018-04-29T03:09:46.136Z,7.43
2018-04-29T03:10:46.676Z,7.42
2018-04-29T03:11:47.230Z,7.39
2018-04-29T03:12:47.764Z,7.39
2018-04-29T03:13:48.347Z,7.42
2018-04-29T03:14:48.857Z,7.46
2018-04-29T03:15:49.400Z,7.40
2018-04-29T03:16:49.946Z,7.51
2018-04-29T03:17:50.488Z,7.46
2018-04-29T03:18:51.038Z,7.45
2018-04-29T03:19:51.574Z,7.51
2018-04-29T03:20:52.119Z,7.51
2018-04-29T03:21:52.660Z,7.50
2018-04-29T03:22:53.204Z,7.40
2018-04-29T03:23:53.744Z,7.43
2018-04-29T03:24:54.293Z,7.40
2018-04-29T03:25:54.837Z,7.42
2018-04-29T03:26:55.378Z,7.35
2018-04-29T03:27:55.921Z,7.36
2018-04-29T03:28:56.464Z,7.36
2018-04-29T03:29:57.009Z,7.46
2018-04-29T03:30:57.546Z,7.35
2018-04-29T03:31:58.093Z,7.37
2018-04-29T03:32:58.636Z,7.40
2018-04-29T03:33:59.180Z,7.33
2018-04-29T03:34:59.719Z,7.29
2018-04-29T03:36:00.265Z,7.27
2018-04-29T03:37:00.810Z,7.28
2018-04-29T03:38:01.357Z,7.29
2018-04-29T03:39:01.903Z,7.29
2018-04-29T03:40:02.448Z,7.25
2018-04-29T03:41:02.991Z,7.24
2018-04-29T03:42:03.537Z,7.33
2018-04-29T03:43:04.080Z,7.28
2018-04-29T03:44:04.626Z,7.28
2018-04-29T03:45:05.171Z,7.32
2018-04-29T03:46:05.716Z,7.29
2018-04-29T03:47:06.262Z,7.22
2018-04-29T03:48:06.799Z,7.27
2018-04-29T03:49:07.347Z,7.19
2018-04-29T03:50:07.888Z,7.15
2018-04-29T03:51:08.437Z,7.15
2018-04-29T03:52:08.984Z,7.15
2018-04-29T03:53:09.531Z,7.06
2018-04-29T03:54:10.070Z,7.02
2018-04-29T03:55:10.613Z,7.03
2018-04-29T03:56:11.158Z,7.04
2018-04-29T03:57:11.703Z,7.00
2018-04-29T03:58:12.242Z,7.03
2018-04-29T03:59:12.782Z,6.97
2018-04-29T04:00:13.329Z,7.00
2018-04-29T04:01:13.879Z,6.97
2018-04-29T04:02:14.421Z,6.85
2018-04-29T04:03:14.959Z,6.99
2018-04-29T04:04:15.501Z,6.91
2018-04-29T04:05:16.051Z,6.99
2018-04-29T04:06:16.594Z,6.96
2018-04-29T04:07:17.140Z,6.97
2018-04-29T04:08:17.683Z,7.02
2018-04-29T04:09:18.237Z,6.97
2018-04-29T04:10:18.774Z,7.02
2018-04-29T04:11:19.322Z,7.04
2018-04-29T04:12:19.869Z,6.89
2018-04-29T04:13:20.415Z,7.07
2018-04-29T04:14:20.961Z,7.12
2018-04-29T04:15:21.511Z,7.14
2018-04-29T04:16:22.054Z,7.07
2018-04-29T04:17:22.598Z,6.97
2018-04-29T04:18:23.144Z,7.14
2018-04-29T04:19:23.693Z,7.07
2018-04-29T04:20:24.241Z,7.00
2018-04-29T04:21:24.788Z,7.06
2018-04-29T04:22:25.333Z,6.97
2018-04-29T04:23:25.877Z,7.14
2018-04-29T04:24:26.425Z,7.14
2018-04-29T04:25:26.972Z,7.09
2018-04-29T04:26:27.517Z,7.09
2018-04-29T04:27:28.066Z,7.28
2018-04-29T04:28:28.615Z,7.29
2018-04-29T04:29:29.160Z,7.36
2018-04-29T04:30:29.707Z,7.37
2018-04-29T04:31:30.254Z,7.37
2018-04-29T04:32:30.801Z,7.53
2018-04-29T04:33:31.352Z,7.45
2018-04-29T04:34:31.902Z,7.43
2018-04-29T04:35:32.447Z,7.46
2018-04-29T04:36:32.996Z,7.45
2018-04-29T04:37:33.545Z,7.50
2018-04-29T04:38:34.090Z,7.51
2018-04-29T04:39:34.638Z,7.60
2018-04-29T04:40:35.185Z,7.66
2018-04-29T04:41:35.728Z,7.76
2018-04-29T04:42:36.285Z,7.73
2018-04-29T04:43:36.827Z,7.64
2018-04-29T04:44:37.380Z,7.66
2018-04-29T04:45:37.950Z,7.69
2018-04-29T04:46:38.474Z,7.77
2018-04-29T04:47:39.021Z,7.70
2018-04-29T04:48:39.566Z,7.80
2018-04-29T04:49:40.117Z,7.80
2018-04-29T04:50:40.743Z,7.95
2018-04-29T04:51:41.210Z,7.97
2018-04-29T04:52:41.759Z,8.01
2018-04-29T04:53:42.308Z,8.04
2018-04-29T04:54:42.851Z,8.01
2018-04-29T04:55:43.402Z,8.06
2018-04-29T04:56:43.949Z,8.16
2018-04-29T04:57:44.494Z,8.10
2018-04-29T04:58:45.044Z,8.30
2018-04-29T04:59:45.589Z,8.27
2018-04-29T05:00:46.145Z,8.43
2018-04-29T05:01:46.699Z,8.40
2018-04-29T05:02:47.247Z,8.43
2018-04-29T05:03:47.800Z,8.49
2018-04-29T05:04:48.350Z,8.46
2018-04-29T05:05:48.902Z,8.55
2018-04-29T05:06:49.445Z,8.58
2018-04-29T05:07:49.994Z,8.56
2018-04-29T05:08:50.543Z,8.55
2018-04-29T05:09:51.089Z,8.63
2018-04-29T05:10:51.639Z,8.70
2018-04-29T05:11:52.190Z,8.70
2018-04-29T05:12:52.736Z,8.84
2018-04-29T05:13:53.290Z,8.67
2018-04-29T05:14:53.839Z,8.56
2018-04-29T05:15:54.385Z,8.55
2018-04-29T05:16:54.935Z,8.59
2018-04-29T05:17:55.485Z,8.66
2018-04-29T05:18:56.037Z,8.77
2018-04-29T05:19:56.585Z,8.76
2018-04-29T05:20:57.135Z,8.76
2018-04-29T05:21:57.682Z,8.85
2018-04-29T05:22:58.226Z,8.86
2018-04-29T05:23:58.778Z,8.86
2018-04-29T05:24:59.328Z,8.96
2018-04-29T05:25:59.875Z,8.92
2018-04-29T05:27:00.425Z,8.93
2018-04-29T05:28:00.980Z,9.01
2018-04-29T05:29:01.532Z,9.11
2018-04-29T05:30:02.084Z,9.08
2018-04-29T05:31:02.630Z,9.08
2018-04-29T05:32:03.184Z,9.25
2018-04-29T05:33:03.738Z,9.32
2018-04-29T05:34:04.284Z,9.33
2018-04-29T05:35:04.837Z,9.35
2018-04-29T05:36:05.391Z,9.35
2018-04-29T05:37:05.940Z,9.41
2018-04-29T05:38:06.491Z,9.35
2018-04-29T05:39:07.041Z,9.45
2018-04-29T05:40:07.593Z,9.40
2018-04-29T05:41:08.141Z,9.47
2018-04-29T05:42:08.686Z,9.50
2018-04-29T05:43:09.234Z,9.53
2018-04-29T05:44:09.787Z,9.44
2018-04-29T05:45:10.341Z,9.50
2018-04-29T05:46:10.893Z,9.45
2018-04-29T05:47:11.451Z,9.43
2018-04-29T05:48:11.997Z,9.36
2018-04-29T05:49:12.540Z,9.32
2018-04-29T05:50:13.087Z,9.30
2018-04-29T05:51:13.640Z,9.35
2018-04-29T05:52:14.191Z,9.22
2018-04-29T05:53:14.741Z,9.25
2018-04-29T05:54:15.295Z,9.22
2018-04-29T05:55:15.847Z,9.28
2018-04-29T05:56:16.400Z,9.29
2018-04-29T05:57:16.950Z,9.30
2018-04-29T05:58:17.498Z,9.45
2018-04-29T05:59:18.052Z,9.47
2018-04-29T06:00:18.609Z,9.48
2018-04-29T06:01:19.155Z,9.58
2018-04-29T06:02:19.705Z,9.62
2018-04-29T06:03:20.254Z,9.72
2018-04-29T06:04:20.807Z,9.65
2018-04-29T06:05:21.354Z,9.74
2018-04-29T06:06:21.935Z,9.62
2018-04-29T06:07:22.454Z,9.71
2018-04-29T06:08:23.003Z,9.79
2018-04-29T06:09:23.556Z,9.79
2018-04-29T06:10:24.102Z,9.69
2018-04-29T06:11:24.660Z,9.72
2018-04-29T06:12:25.198Z,9.71
2018-04-29T06:13:25.748Z,9.72
2018-04-29T06:14:26.293Z,9.63
2018-04-29T06:15:26.846Z,9.48
2018-04-29T06:16:27.397Z,9.38
2018-04-29T06:17:27.947Z,9.36
2018-04-29T06:18:28.497Z,9.35
2018-04-29T06:19:29.041Z,9.29
2018-04-29T06:20:29.608Z,9.26
2018-04-29T06:21:30.137Z,9.33
2018-04-29T06:22:30.687Z,9.35
2018-04-29T06:23:31.240Z,9.35
2018-04-29T06:24:31.793Z,9.48
2018-04-29T06:25:32.344Z,9.56
2018-04-29T06:26:32.889Z,9.56
2018-04-29T06:27:33.435Z,9.58
2018-04-29T06:28:33.980Z,9.62
2018-04-29T06:29:34.530Z,9.68
2018-04-29T06:30:35.076Z,9.62
2018-04-29T06:31:35.626Z,9.72
2018-04-29T06:32:36.173Z,9.74
2018-04-29T06:33:36.726Z,9.86
2018-04-29T06:34:37.311Z,9.90
2018-04-29T06:35:37.827Z,9.94
2018-04-29T06:36:38.384Z,9.84
2018-04-29T06:37:38.938Z,9.96
2018-04-29T06:38:39.487Z,9.96
2018-04-29T06:39:40.039Z,10.06
2018-04-29T06:40:40.586Z,10.02
2018-04-29T06:41:41.139Z,10.05
2018-04-29T06:42:41.697Z,10.20
2018-04-29T06:43:42.246Z,10.20
2018-04-29T06:44:42.798Z,10.20
2018-04-29T06:45:43.355Z,10.29
2018-04-29T06:46:43.905Z,10.41
2018-04-29T06:47:44.460Z,10.39
2018-04-29T06:48:45.012Z,10.44
2018-04-29T06:49:45.560Z,10.41
2018-04-29T06:50:46.118Z,10.26
2018-04-29T06:51:46.670Z,10.39
2018-04-29T06:52:47.219Z,10.37
2018-04-29T06:53:47.769Z,10.37
2018-04-29T06:54:48.320Z,10.41
2018-04-29T06:55:48.868Z,10.47
2018-04-29T06:56:49.421Z,10.49
2018-04-29T06:57:49.973Z,10.51
2018-04-29T06:58:50.530Z,10.45
2018-04-29T06:59:51.085Z,10.51
2018-04-29T07:00:51.649Z,10.58
2018-04-29T07:01:52.193Z,10.67
2018-04-29T07:02:52.743Z,10.72
2018-04-29T07:03:53.298Z,10.74
2018-04-29T07:04:53.855Z,10.82
2018-04-29T07:05:54.409Z,10.85
2018-04-29T07:06:54.965Z,10.94
2018-04-29T07:07:55.527Z,10.99
2018-04-29T07:08:56.076Z,11.16
2018-04-29T07:09:56.629Z,11.16
2018-04-29T07:10:57.186Z,11.40
2018-04-29T07:11:57.742Z,11.57
2018-04-29T07:12:58.297Z,12.03
2018-04-29T07:13:58.851Z,12.21
2018-04-29T07:14:59.404Z,12.35
2018-04-29T07:15:59.954Z,12.22
2018-04-29T07:17:00.512Z,12.32
2018-04-29T07:18:01.065Z,12.32
2018-04-29T07:19:01.618Z,12.28
2018-04-29T07:20:02.254Z,12.13
2018-04-29T07:21:02.721Z,12.03
2018-04-29T07:22:03.275Z,11.96
2018-04-29T07:23:03.835Z,11.88
2018-04-29T07:24:04.382Z,11.73
2018-04-29T07:25:04.930Z,11.63
2018-04-29T07:26:05.517Z,11.51
2018-04-29T07:27:06.040Z,11.51
2018-04-29T07:28:06.595Z,11.47
2018-04-29T07:29:07.148Z,11.40
2018-04-29T07:30:07.703Z,11.30
2018-04-29T07:31:08.252Z,11.27
2018-04-29T07:32:08.808Z,11.27
2018-04-29T07:33:09.360Z,11.29
2018-04-29T07:34:09.945Z,11.30
2018-04-29T07:35:10.463Z,11.34
2018-04-29T07:36:11.016Z,11.40
2018-04-29T07:37:11.572Z,11.52
2018-04-29T07:38:12.126Z,11.50
2018-04-29T07:39:12.685Z,11.51
2018-04-29T07:40:13.303Z,11.50
2018-04-29T07:41:13.782Z,11.44
2018-04-29T07:42:14.335Z,11.52
2018-04-29T07:43:14.885Z,11.50
2018-04-29T07:44:15.443Z,11.48
2018-04-29T07:45:16.001Z,11.52
2018-04-29T07:46:16.550Z,11.45
2018-04-29T07:47:17.106Z,11.50
2018-04-29T07:48:17.648Z,11.48
2018-04-29T07:49:18.207Z,11.44
2018-04-29T07:50:18.757Z,11.44
2018-04-29T07:51:19.306Z,11.40
2018-04-29T07:52:19.957Z,11.36
2018-04-29T07:53:20.407Z,11.30
2018-04-29T07:54:20.960Z,11.14
2018-04-29T07:55:21.514Z,11.01
2018-04-29T07:56:22.069Z,11.00
2018-04-29T07:57:22.612Z,10.94
2018-04-29T07:58:23.175Z,10.94
2018-04-29T07:59:23.723Z,10.90
2018-04-29T08:00:24.275Z,10.96
2018-04-29T08:01:24.827Z,10.94
2018-04-29T08:02:25.380Z,11.04
2018-04-29T08:03:25.935Z,11.07
2018-04-29T08:04:26.484Z,11.04
2018-04-29T08:05:27.035Z,11.16
2018-04-29T08:06:27.584Z,11.21
2018-04-29T08:07:28.132Z,11.27
2018-04-29T08:08:28.689Z,11.27
2018-04-29T08:09:29.242Z,11.27
2018-04-29T08:10:29.795Z,11.27
2018-04-29T08:11:30.351Z,11.24
2018-04-29T08:12:30.904Z,11.19
2018-04-29T08:13:31.458Z,11.19
2018-04-29T08:14:32.019Z,11.19
2018-04-29T08:15:32.675Z,11.22
2018-04-29T08:16:33.122Z,11.19
2018-04-29T08:17:33.674Z,11.21
2018-04-29T08:18:34.228Z,11.34
2018-04-29T08:19:34.783Z,11.37
2018-04-29T08:20:35.341Z,11.45
2018-04-29T08:21:35.897Z,11.48
2018-04-29T08:22:36.456Z,11.48
2018-04-29T08:23:37.010Z,11.54
2018-04-29T08:24:37.563Z,11.72
2018-04-29T08:25:38.116Z,11.77
2018-04-29T08:26:38.669Z,11.83
2018-04-29T08:27:39.226Z,11.87
2018-04-29T08:28:39.784Z,11.88
2018-04-29T08:29:40.343Z,12.03
2018-04-29T08:30:40.899Z,12.13
2018-04-29T08:31:41.452Z,12.28
2018-04-29T08:32:42.005Z,12.44
2018-04-29T08:33:42.563Z,12.61
2018-04-29T08:34:43.117Z,12.72
2018-04-29T08:35:43.669Z,12.89
2018-04-29T08:36:44.224Z,12.98
2018-04-29T08:37:44.775Z,13.10
2018-04-29T08:38:45.332Z,13.42
2018-04-29T08:39:45.893Z,13.36
2018-04-29T08:40:46.438Z,13.33
2018-04-29T08:41:47.013Z,13.27
2018-04-29T08:42:47.561Z,13.35
2018-04-29T08:43:48.117Z,13.52
2018-04-29T08:44:48.676Z,13.53
2018-04-29T08:45:49.241Z,13.56
2018-04-29T08:46:49.785Z,13.60
2018-04-29T08:47:50.344Z,13.74
2018-04-29T08:48:50.918Z,14.07
2018-04-29T08:49:51.465Z,14.27
2018-04-29T08:50:52.023Z,14.65
2018-04-29T08:51:52.586Z,14.95
2018-04-29T08:52:53.144Z,15.06
2018-04-29T08:53:53.705Z,15.21
2018-04-29T08:54:54.349Z,15.06
2018-04-29T08:55:54.885Z,15.17
2018-04-29T08:56:55.379Z,15.31
2018-04-29T08:57:55.944Z,15.47
2018-04-29T08:58:56.507Z,15.39
2018-04-29T08:59:57.063Z,15.32
2018-04-29T09:00:57.617Z,15.39
2018-04-29T09:01:58.181Z,15.28
2018-04-29T09:02:58.744Z,15.34
2018-04-29T09:03:59.469Z,15.39
2018-04-29T09:04:59.872Z,15.28
2018-04-29T09:06:00.432Z,15.37
2018-04-29T09:07:00.990Z,15.43
2018-04-29T09:08:01.553Z,15.73
2018-04-29T09:09:02.111Z,15.99
2018-04-29T09:10:02.673Z,16.33
2018-04-29T09:11:03.236Z,16.51
2018-04-29T09:12:03.800Z,16.83
2018-04-29T09:13:04.361Z,17.00
2018-04-29T09:14:04.920Z,17.16
2018-04-29T09:15:05.487Z,17.29
2018-04-29T09:16:06.054Z,17.37
2018-04-29T09:17:06.616Z,17.56
2018-04-29T09:18:07.180Z,17.75
2018-04-29T09:19:07.748Z,18.00
2018-04-29T09:20:08.304Z,17.97
2018-04-29T09:21:08.863Z,18.26
2018-04-29T09:22:09.427Z,18.34
2018-04-29T09:23:09.987Z,18.43
2018-04-29T09:24:10.548Z,18.29
2018-04-29T09:25:11.110Z,18.32
2018-04-29T09:26:11.672Z,18.32
2018-04-29T09:27:12.236Z,18.45
2018-04-29T09:28:12.802Z,17.51
2018-04-29T09:29:13.365Z,17.12
2018-04-29T09:30:13.933Z,17.19
2018-04-29T09:31:14.497Z,17.59
2018-04-29T09:32:15.062Z,17.86
2018-04-29T09:33:15.628Z,18.01
2018-04-29T09:34:16.194Z,17.83
2018-04-29T09:35:16.763Z,17.83
2018-04-29T09:36:17.332Z,17.63
2018-04-29T09:37:17.946Z,17.19
2018-04-29T09:38:18.455Z,17.06
2018-04-29T09:39:19.015Z,17.09
2018-04-29T09:40:19.703Z,16.91
2018-04-29T09:41:20.129Z,16.72
2018-04-29T09:42:20.690Z,16.66
2018-04-29T09:43:21.254Z,16.42
2018-04-29T09:44:21.809Z,16.39
2018-04-29T09:45:22.363Z,16.41
2018-04-29T09:46:22.924Z,16.12
2018-04-29T09:47:23.481Z,16.17
2018-04-29T09:48:24.037Z,16.17
2018-04-29T09:49:24.599Z,16.20
2018-04-29T09:50:25.157Z,16.13
2018-04-29T09:51:25.721Z,16.39
2018-04-29T09:52:26.280Z,16.64
2018-04-29T09:53:26.840Z,16.81
2018-04-29T09:54:27.403Z,17.05
2018-04-29T09:55:27.964Z,17.00
2018-04-29T09:56:28.526Z,17.11
2018-04-29T09:57:29.088Z,17.18
2018-04-29T09:58:29.726Z,17.41
2018-04-29T09:59:30.201Z,17.48
2018-04-29T10:00:30.767Z,17.24
2018-04-29T10:01:31.331Z,17.16
2018-04-29T10:02:31.886Z,17.14
2018-04-29T10:03:32.446Z,17.14
2018-04-29T10:04:33.003Z,17.16
2018-04-29T10:05:33.613Z,17.19
2018-04-29T10:06:34.177Z,16.96
2018-04-29T10:07:34.739Z,16.83
2018-04-29T10:08:35.305Z,16.96
2018-04-29T10:09:35.947Z,17.04
2018-04-29T10:10:36.421Z,16.98
2018-04-29T10:11:36.982Z,17.00
2018-04-29T10:12:37.542Z,17.14
2018-04-29T10:13:38.102Z,17.15
2018-04-29T10:14:38.672Z,17.04
2018-04-29T10:15:39.221Z,16.93
2018-04-29T10:16:39.782Z,16.86
2018-04-29T10:17:40.340Z,16.86
2018-04-29T10:18:40.903Z,16.72
2018-04-29T10:19:41.466Z,16.91
2018-04-29T10:20:42.020Z,16.93
2018-04-29T10:21:42.577Z,16.89
2018-04-29T10:22:43.139Z,16.87
2018-04-29T10:23:43.698Z,16.91
2018-04-29T10:24:44.287Z,16.97
2018-04-29T10:25:44.816Z,16.87
2018-04-29T10:26:45.376Z,16.91
2018-04-29T10:27:45.938Z,16.87
2018-04-29T10:28:46.499Z,16.96
2018-04-29T10:29:47.058Z,16.96
2018-04-29T10:30:47.616Z,16.86
2018-04-29T10:31:48.180Z,16.86
2018-04-29T10:32:48.746Z,16.82
2018-04-29T10:33:49.293Z,16.76
2018-04-29T10:34:49.857Z,16.61
2018-04-29T10:35:50.439Z,16.82
2018-04-29T10:36:50.971Z,16.86
2018-04-29T10:37:51.526Z,17.01
2018-04-29T10:38:52.091Z,17.16
2018-04-29T10:39:52.648Z,17.15
2018-04-29T10:40:53.209Z,17.12
2018-04-29T10:41:53.771Z,17.21
2018-04-29T10:42:54.331Z,17.23
2018-04-29T10:43:54.893Z,17.30
2018-04-29T10:44:55.446Z,17.29
2018-04-29T10:45:56.005Z,17.21
2018-04-29T10:46:56.556Z,17.23
2018-04-29T10:47:57.115Z,17.16
2018-04-29T10:48:57.676Z,17.11
2018-04-29T10:49:58.235Z,16.94
2018-04-29T10:50:58.795Z,17.12
2018-04-29T10:51:59.359Z,16.97
2018-04-29T10:52:59.919Z,16.98
2018-04-29T10:54:00.481Z,16.97
2018-04-29T10:55:01.036Z,17.01
2018-04-29T10:56:01.592Z,16.98
2018-04-29T10:57:02.152Z,17.01
2018-04-29T10:58:02.712Z,17.01
2018-04-29T10:59:03.271Z,17.23
2018-04-29T11:00:03.832Z,17.16
2018-04-29T11:01:04.388Z,17.15
2018-04-29T11:02:04.948Z,17.16
2018-04-29T11:03:05.503Z,17.12
2018-04-29T11:04:06.066Z,17.14
2018-04-29T11:05:06.630Z,16.91
2018-04-29T11:06:07.180Z,17.01
2018-04-29T11:07:07.740Z,16.94
2018-04-29T11:08:08.298Z,17.09
2018-04-29T11:09:08.859Z,17.01
2018-04-29T11:10:09.420Z,17.14
2018-04-29T11:11:09.982Z,17.39
2018-04-29T11:12:10.539Z,17.48
2018-04-29T11:13:11.100Z,17.70
2018-04-29T11:14:11.663Z,18.16
2018-04-29T11:15:12.220Z,18.75
2018-04-29T11:16:12.787Z,18.98
2018-04-29T11:17:13.346Z,19.11
2018-04-29T11:18:13.911Z,19.15
2018-04-29T11:19:14.472Z,18.95
2018-04-29T11:20:15.026Z,18.85
2018-04-29T11:21:15.588Z,18.65
2018-04-29T11:22:16.237Z,18.81
2018-04-29T11:23:16.705Z,18.80
2018-04-29T11:24:17.264Z,18.95
2018-04-29T11:25:17.820Z,18.93
2018-04-29T11:26:18.385Z,18.92
2018-04-29T11:27:18.953Z,19.02
2018-04-29T11:28:19.511Z,19.09
2018-04-29T11:29:20.077Z,19.30
2018-04-29T11:30:20.634Z,19.49
2018-04-29T11:31:21.196Z,19.61
2018-04-29T11:32:21.763Z,19.71
2018-04-29T11:33:22.324Z,19.70
2018-04-29T11:34:22.888Z,19.74
2018-04-29T11:35:23.442Z,19.61
2018-04-29T11:36:23.999Z,19.49
2018-04-29T11:37:24.565Z,19.44
2018-04-29T11:38:25.123Z,19.47
2018-04-29T11:39:25.687Z,19.41
2018-04-29T11:40:26.278Z,19.39
2018-04-29T11:41:26.817Z,19.27
2018-04-29T11:42:27.375Z,19.34
2018-04-29T11:43:27.931Z,19.74
2018-04-29T11:44:28.490Z,20.31
2018-04-29T11:45:29.053Z,20.55
2018-04-29T11:46:29.616Z,20.84
2018-04-29T11:47:30.186Z,21.03
2018-04-29T11:48:30.754Z,21.51
2018-04-29T11:49:31.312Z,21.60
2018-04-29T11:50:31.878Z,21.52
2018-04-29T11:51:32.441Z,21.27
2018-04-29T11:52:33.005Z,20.92
2018-04-29T11:53:33.570Z,20.91
2018-04-29T11:54:34.132Z,21.28
2018-04-29T11:55:34.701Z,21.62
2018-04-29T11:56:35.267Z,21.85
2018-04-29T11:57:35.832Z,21.95
2018-04-29T11:58:36.396Z,21.95
2018-04-29T11:59:36.962Z,22.02
2018-04-29T12:00:37.526Z,22.18
2018-04-29T12:01:38.082Z,22.23
2018-04-29T12:02:38.689Z,22.01
2018-04-29T12:03:39.215Z,21.99
2018-04-29T12:04:39.779Z,22.18
2018-04-29T12:05:40.349Z,22.01
2018-04-29T12:06:40.917Z,22.10
2018-04-29T12:07:41.483Z,21.91
2018-04-29T12:08:42.055Z,21.62
2018-04-29T12:09:42.619Z,21.91
2018-04-29T12:10:43.185Z,22.26
2018-04-29T12:11:43.756Z,22.36
2018-04-29T12:12:44.320Z,22.28
2018-04-29T12:13:44.884Z,22.62
2018-04-29T12:14:45.446Z,22.79
2018-04-29T12:15:46.012Z,23.00
2018-04-29T12:16:46.577Z,23.12
2018-04-29T12:17:47.143Z,22.97
2018-04-29T12:18:47.712Z,22.87
2018-04-29T12:19:48.278Z,22.99
2018-04-29T12:20:48.846Z,23.23
2018-04-29T12:21:49.413Z,23.28
2018-04-29T12:22:49.977Z,22.94
2018-04-29T12:23:50.541Z,23.25
2018-04-29T12:24:51.107Z,23.40
2018-04-29T12:25:51.667Z,23.50
2018-04-29T12:26:52.240Z,23.72
2018-04-29T12:27:52.801Z,24.14
2018-04-29T12:28:53.365Z,23.99
2018-04-29T12:29:53.934Z,23.99
2018-04-29T12:30:54.506Z,24.03
2018-04-29T12:31:55.060Z,24.18
2018-04-29T12:32:55.628Z,24.31
2018-04-29T12:33:56.207Z,24.45
2018-04-29T12:34:56.767Z,24.69
2018-04-29T12:35:57.340Z,24.80
2018-04-29T12:36:57.911Z,24.70
2018-04-29T12:37:58.478Z,24.79
2018-04-29T12:38:59.047Z,24.96
2018-04-29T12:39:59.627Z,24.83
2018-04-29T12:41:00.190Z,24.69
2018-04-29T12:42:00.752Z,24.94
2018-04-29T12:43:01.327Z,25.06
2018-04-29T12:44:01.898Z,24.84
2018-04-29T12:45:02.467Z,24.86
2018-04-29T12:46:03.039Z,25.06
2018-04-29T12:47:03.595Z,24.92
2018-04-29T12:48:04.162Z,24.91
2018-04-29T12:49:04.730Z,25.16
2018-04-29T12:50:05.295Z,25.26
2018-04-29T12:51:05.856Z,25.16
2018-04-29T12:52:06.425Z,25.18
2018-04-29T12:53:07.006Z,25.28
2018-04-29T12:54:07.564Z,25.57
2018-04-29T12:55:08.131Z,25.41
2018-04-29T12:56:08.695Z,24.96
2018-04-29T12:57:09.263Z,24.35
2018-04-29T12:58:09.828Z,24.16
2018-04-29T12:59:10.392Z,24.16
2018-04-29T13:00:11.060Z,23.95
2018-04-29T13:01:11.522Z,24.41
2018-04-29T13:02:12.093Z,24.70
2018-04-29T13:03:12.658Z,24.42
2018-04-29T13:04:13.230Z,24.17
2018-04-29T13:05:13.788Z,24.23
2018-04-29T13:06:14.354Z,24.31
2018-04-29T13:07:14.920Z,24.41
2018-04-29T13:08:15.483Z,24.83
2018-04-29T13:09:16.051Z,24.54
2018-04-29T13:10:16.629Z,24.94
2018-04-29T13:11:17.188Z,25.17
2018-04-29T13:12:17.756Z,25.04